Time;durP1;ratioP1;P1;durP2;ratioP2;P2;SDS_P1;SDS_P2;PMS_P1;PMS_P2;Temp;Humidity;BMP_temperature;BMP_pressure;BME280_temperature;BME280_humidity;BME280_pressure;Samples;Min_cycle;Max_cycle;Signal;HPM_P1;HPM_P2
2021/12/23 00:00:29;;;;;;;46.17;35.25;;;;;;;-5.36;100.00;96273.56;6179100;23;20001;-67
2021/12/23 00:02:54;;;;;;;50.85;36.38;;;;;;;-5.36;99.61;96274.38;6179138;23;20463;-67
2021/12/23 00:05:20;;;;;;;50.50;36.78;;;;;;;-5.38;100.00;96268.44;6178323;23;20021;-67
2021/12/23 00:07:45;;;;;;;49.00;34.58;;;;;;;-5.42;99.91;96263.41;6178874;23;20005;-67
2021/12/23 00:10:11;;;;;;;43.13;31.92;;;;;;;-5.42;99.71;96255.69;6178404;23;20008;-67
2021/12/23 00:12:40;;;;;;;38.97;31.00;;;;;;;-5.41;99.67;96254.84;6178872;23;20452;-67
2021/12/23 00:15:15;;;;;;;33.85;26.23;;;;;;;-5.44;98.70;96244.63;6177912;23;20436;-67
2021/12/23 00:25:33;;;;;;;37.53;26.40;;;;;;;-5.10;98.82;96225.97;6176851;23;20012;-67
2021/12/23 00:27:59;;;;;;;32.63;23.80;;;;;;;-5.03;98.48;96222.38;6176865;22;20437;-67
2021/12/23 00:30:24;;;;;;;35.38;25.25;;;;;;;-5.09;99.31;96215.63;6178860;23;20047;-67
2021/12/23 00:32:50;;;;;;;34.35;25.15;;;;;;;-5.11;100.00;96221.69;6179402;23;20011;-67
2021/12/23 00:35:15;;;;;;;34.85;24.63;;;;;;;-5.14;100.00;96224.34;6177402;23;20353;-67
2021/12/23 00:37:44;;;;;;;34.72;26.08;;;;;;;-5.03;99.91;96225.78;6179178;23;20005;-67
2021/12/23 00:40:12;;;;;;;34.65;25.77;;;;;;;-5.07;100.00;96219.03;6179030;23;20023;-67
2021/12/23 00:42:38;;;;;;;37.70;25.50;;;;;;;-5.09;100.00;96215.63;6178985;23;20002;-67
2021/12/23 00:45:05;;;;;;;43.42;29.75;;;;;;;-5.08;100.00;96219.06;6179221;23;20001;-67
2021/12/23 00:47:31;;;;;;;52.53;32.72;;;;;;;-5.06;100.00;96215.59;6179079;23;20009;-67
2021/12/23 00:49:57;;;;;;;64.57;35.85;;;;;;;-5.03;100.00;96224.94;6179294;23;20076;-67
2021/12/23 00:52:35;;;;;;;42.03;26.70;;;;;;;-5.05;100.00;96222.41;6178706;23;20027;-67
2021/12/23 00:55:03;;;;;;;37.17;23.15;;;;;;;-4.95;100.00;96219.63;6179023;23;20005;-67
2021/12/23 00:57:30;;;;;;;29.65;20.27;;;;;;;-4.89;99.67;96232.31;6179278;23;20008;-67
2021/12/23 00:59:57;;;;;;;30.25;21.60;;;;;;;-4.85;99.46;96228.84;6152884;23;20013;-67
2021/12/23 01:02:27;;;;;;;26.65;20.63;;;;;;;-4.81;98.99;96235.59;6178819;23;20080;-67
2021/12/23 01:04:52;;;;;;;31.13;22.35;;;;;;;-4.64;99.58;96232.63;6179096;23;20071;-67
2021/12/23 01:07:18;;;;;;;29.38;22.10;;;;;;;-4.60;99.45;96236.81;6178934;23;20449;-67
2021/12/23 01:09:44;;;;;;;34.58;22.80;;;;;;;-4.62;100.00;96233.44;6179034;23;20009;-68
2021/12/23 01:12:12;;;;;;;32.17;22.23;;;;;;;-4.63;100.00;96231.75;6152602;23;20012;-68
2021/12/23 01:14:52;;;;;;;28.27;21.15;;;;;;;-4.64;100.00;96235.19;6152854;22;20060;-68
2021/12/23 01:19:50;;;;;;;33.55;20.00;;;;;;;-4.46;99.06;96226.19;6179667;23;20008;-67
2021/12/23 01:22:15;;;;;;;28.55;20.38;;;;;;;-4.58;99.46;96231.63;6178870;23;20081;-67
2021/12/23 01:24:41;;;;;;;25.38;18.48;;;;;;;-4.57;99.42;96229.91;6179101;23;20016;-68
2021/12/23 01:27:06;;;;;;;30.00;20.40;;;;;;;-4.66;99.84;96234.38;6178989;23;20012;-68
2021/12/23 01:29:32;;;;;;;34.42;22.35;;;;;;;-4.69;100.00;96237.03;6178921;23;20005;-67
2021/12/23 01:32:00;;;;;;;27.20;19.05;;;;;;;-4.62;99.77;96236.00;6179008;23;20451;-68
2021/12/23 01:34:25;;;;;;;26.80;21.00;;;;;;;-4.68;99.72;96241.28;6178958;23;20005;-68
2021/12/23 01:36:50;;;;;;;30.52;19.98;;;;;;;-4.75;100.00;96240.56;6179059;23;20079;-68
2021/12/23 01:39:16;;;;;;;25.65;18.88;;;;;;;-4.79;100.00;96233.81;6179070;23;20008;-68
2021/12/23 01:41:41;;;;;;;26.98;19.50;;;;;;;-4.78;100.00;96240.66;6179130;23;20004;-67
2021/12/23 01:44:07;;;;;;;25.00;18.50;;;;;;;-4.76;100.00;96246.59;6178650;23;20001;-67
2021/12/23 01:46:33;;;;;;;25.73;18.67;;;;;;;-4.73;100.00;96247.41;6178921;23;20005;-67
2021/12/23 01:48:58;;;;;;;31.15;20.05;;;;;;;-4.72;100.00;96254.22;6178830;22;20001;-67
2021/12/23 01:51:23;;;;;;;27.50;19.38;;;;;;;-4.73;100.00;96261.13;6178674;23;20005;-68
2021/12/23 01:53:49;;;;;;;26.88;19.90;;;;;;;-4.71;100.00;96255.91;6178822;23;20015;-67
2021/12/23 01:56:15;;;;;;;29.13;20.23;;;;;;;-4.71;100.00;96253.34;6178550;23;20100;-67
2021/12/23 01:58:42;;;;;;;32.10;19.95;;;;;;;-4.73;99.89;96257.69;6179104;23;20001;-68
2021/12/23 02:01:08;;;;;;;25.52;17.75;;;;;;;-4.64;99.93;96247.22;6178832;23;20437;-68
2021/12/23 02:03:34;;;;;;;23.48;17.95;;;;;;;-4.64;100.00;96263.47;6178854;23;20083;-68
2021/12/23 02:06:00;;;;;;;24.50;18.08;;;;;;;-4.64;99.43;96252.34;6178730;23;20385;-68
2021/12/23 02:08:25;;;;;;;24.33;17.65;;;;;;;-4.64;99.26;96249.78;6178745;23;20032;-67
2021/12/23 02:10:53;;;;;;;25.08;16.52;;;;;;;-4.66;100.00;96241.22;6178804;23;20012;-68
2021/12/23 02:13:20;;;;;;;25.08;17.65;;;;;;;-4.69;100.00;96234.47;6152327;23;20314;-68
2021/12/23 02:15:45;;;;;;;25.98;17.58;;;;;;;-4.72;100.00;96237.09;6178883;23;20477;-68
2021/12/23 02:18:11;;;;;;;24.60;17.45;;;;;;;-4.72;100.00;96226.81;6178504;23;20088;-68
2021/12/23 02:20:36;;;;;;;25.98;18.05;;;;;;;-4.75;100.00;96214.88;6179158;23;20005;-67
2021/12/23 02:23:02;;;;;;;23.00;17.45;;;;;;;-4.73;100.00;96214.88;6178699;23;20001;-68
2021/12/23 02:25:28;;;;;;;25.35;18.08;;;;;;;-4.72;100.00;96213.97;6178563;23;20005;-68
2021/12/23 02:27:55;;;;;;;25.38;20.00;;;;;;;-4.73;100.00;96212.28;6178374;23;20006;-68
2021/12/23 02:30:23;;;;;;;25.23;19.17;;;;;;;-4.62;100.00;96212.88;6178933;23;20005;-68
2021/12/23 02:32:50;;;;;;;22.15;17.48;;;;;;;-4.59;100.00;96211.97;6178794;23;20005;-68
2021/12/23 02:35:18;;;;;;;24.58;17.67;;;;;;;-4.61;100.00;96211.16;6178448;23;20155;-67
2021/12/23 02:37:44;;;;;;;24.77;18.45;;;;;;;-4.61;100.00;96206.84;6178782;23;20005;-67
2021/12/23 02:40:11;;;;;;;22.08;15.88;;;;;;;-4.60;100.00;96218.00;6178306;23;20005;-68
2021/12/23 02:42:37;;;;;;;21.00;16.33;;;;;;;-4.60;100.00;96211.09;6152301;23;20024;-67
2021/12/23 02:45:09;;;;;;;22.48;16.08;;;;;;;-4.63;100.00;96206.03;6152126;23;20001;-67
2021/12/23 02:47:35;;;;;;;25.00;15.93;;;;;;;-4.64;100.00;96211.22;6178628;23;20001;-67
2021/12/23 02:50:00;;;;;;;21.60;16.85;;;;;;;-4.69;100.00;96205.34;6178668;23;20062;-67
2021/12/23 02:52:25;;;;;;;21.52;16.95;;;;;;;-4.70;100.00;96211.34;6178348;23;20085;-67
2021/12/23 02:54:58;;;;;;;22.88;18.30;;;;;;;-4.74;100.00;96200.31;6179109;23;20005;-67
2021/12/23 02:57:24;;;;;;;22.50;18.13;;;;;;;-4.72;100.00;96196.00;6178287;23;20067;-67
2021/12/23 02:59:50;;;;;;;21.45;16.50;;;;;;;-4.69;100.00;96190.78;6178478;23;20012;-67
2021/12/23 03:02:16;;;;;;;21.35;16.23;;;;;;;-4.67;100.00;96188.16;6178233;23;20012;-67
2021/12/23 03:04:42;;;;;;;19.77;16.00;;;;;;;-4.67;100.00;96186.44;6178179;23;20017;-67
2021/12/23 03:07:07;;;;;;;22.60;15.40;;;;;;;-4.68;100.00;96189.03;6179364;23;20001;-67
2021/12/23 03:09:32;;;;;;;18.67;16.35;;;;;;;-4.74;100.00;96182.34;6179498;23;20013;-67
2021/12/23 03:11:58;;;;;;;23.85;19.10;;;;;;;-4.80;100.00;96183.31;6179937;23;20005;-67
2021/12/23 03:14:23;;;;;;;19.50;16.40;;;;;;;-4.83;100.00;96175.69;6179488;23;20025;-67
2021/12/23 03:16:50;;;;;;;23.50;16.60;;;;;;;-4.75;99.50;96178.09;6180025;22;20067;-67
2021/12/23 03:19:15;;;;;;;26.42;18.30;;;;;;;-4.81;99.96;96161.09;6179636;23;20056;-67
2021/12/23 03:21:41;;;;;;;19.60;15.52;;;;;;;-4.83;100.00;96154.28;6179601;23;20428;-67
2021/12/23 03:24:06;;;;;;;23.05;16.80;;;;;;;-4.91;99.61;96150.19;6153280;23;20461;-67
2021/12/23 03:26:32;;;;;;;21.23;16.90;;;;;;;-4.96;99.81;96139.19;6179925;23;20008;-67
2021/12/23 03:28:57;;;;;;;24.67;16.70;;;;;;;-5.01;100.00;96129.88;6179622;23;20001;-67
2021/12/23 03:31:23;;;;;;;21.55;16.42;;;;;;;-5.07;100.00;96125.72;6179378;23;20017;-67
2021/12/23 03:33:48;;;;;;;19.90;16.20;;;;;;;-5.07;100.00;96125.72;6179720;23;20012;-67
2021/12/23 03:36:14;;;;;;;20.63;16.50;;;;;;;-5.09;100.00;96122.34;6178843;23;19997;-67
2021/12/23 03:38:39;;;;;;;22.80;14.68;;;;;;;-4.95;99.25;96119.47;6179582;23;20005;-67
2021/12/23 03:41:04;;;;;;;20.92;13.77;;;;;;;-5.01;100.00;96115.31;6179310;23;20008;-67
2021/12/23 03:43:30;;;;;;;16.92;13.75;;;;;;;-5.01;100.00;96120.44;6179721;23;20037;-67
2021/12/23 03:45:57;;;;;;;16.55;13.55;;;;;;;-5.04;99.45;96123.09;6180236;22;20085;-67
2021/12/23 03:48:23;;;;;;;19.58;14.45;;;;;;;-5.07;99.58;96123.16;6179396;23;20001;-67
2021/12/23 03:50:48;;;;;;;16.45;13.43;;;;;;;-5.11;100.00;96129.25;6179551;23;20009;-67
2021/12/23 03:53:15;;;;;;;15.88;12.98;;;;;;;-5.15;99.81;96131.03;6178618;23;20001;-67
2021/12/23 03:55:41;;;;;;;16.23;12.05;;;;;;;-5.19;100.00;96132.00;6179563;23;20476;-67
2021/12/23 03:58:06;;;;;;;12.13;10.82;;;;;;;-5.19;100.00;96135.44;6179383;23;20001;-67
2021/12/23 04:00:32;;;;;;;12.75;9.50;;;;;;;-5.15;99.74;96128.47;6179652;23;20008;-67
2021/12/23 04:02:57;;;;;;;9.82;8.82;;;;;;;-5.12;99.68;96119.88;6179309;23;20637;-67
2021/12/23 04:05:23;;;;;;;11.52;9.88;;;;;;;-5.09;98.93;96119.78;6179297;23;20021;-67
2021/12/23 04:07:49;;;;;;;13.18;11.88;;;;;;;-5.04;100.00;96120.53;6179447;23;20047;-67
2021/12/23 04:10:18;;;;;;;13.65;10.85;;;;;;;-4.86;99.00;96110.69;6179128;23;20050;-67
2021/12/23 04:12:45;;;;;;;14.82;12.82;;;;;;;-4.85;98.72;96114.94;6179718;23;20035;-67
2021/12/23 04:15:11;;;;;;;14.35;11.57;;;;;;;-4.96;100.00;96102.38;6179375;23;20452;-67
2021/12/23 04:17:37;;;;;;;17.10;13.82;;;;;;;-4.96;100.00;96099.78;6178976;23;20001;-67
2021/12/23 04:20:16;;;;;;;17.27;13.77;;;;;;;-4.96;100.00;96098.09;6179375;23;20016;-67
2021/12/23 04:22:42;;;;;;;16.70;13.80;;;;;;;-4.97;100.00;96105.81;6179563;23;20445;-67
2021/12/23 04:25:09;;;;;;;14.90;13.10;;;;;;;-4.95;100.00;96114.31;6179268;23;20002;-67
2021/12/23 04:27:34;;;;;;;16.33;14.52;;;;;;;-4.97;100.00;96116.09;6179259;23;20005;-67
2021/12/23 04:30:00;;;;;;;15.20;13.35;;;;;;;-4.45;99.22;96124.22;6179120;23;20039;-67
2021/12/23 04:32:25;;;;;;;14.20;12.70;;;;;;;-4.46;98.78;96122.53;6153270;23;20001;-67
2021/12/23 04:34:50;;;;;;;14.27;12.63;;;;;;;-4.50;98.16;96126.09;6179310;23;20062;-67
2021/12/23 04:37:16;;;;;;;17.23;13.05;;;;;;;-4.70;99.41;96124.84;6179068;23;20004;-67
2021/12/23 04:39:41;;;;;;;18.10;13.75;;;;;;;-4.76;99.79;96115.56;6177916;23;20054;-67
2021/12/23 04:42:07;;;;;;;14.13;12.40;;;;;;;-4.82;99.67;96130.28;6179325;23;20074;-67
2021/12/23 04:44:32;;;;;;;15.55;13.25;;;;;;;-4.92;100.00;96120.25;6179351;23;20468;-67
2021/12/23 04:46:58;;;;;;;15.30;13.77;;;;;;;-5.02;100.00;96113.63;6179224;23;20088;-67
2021/12/23 04:49:23;;;;;;;17.38;13.63;;;;;;;-4.99;100.00;96123.00;6179122;23;20011;-67
2021/12/23 04:51:49;;;;;;;16.10;13.27;;;;;;;-4.85;99.35;96114.94;6179333;23;20005;-67
2021/12/23 04:54:15;;;;;;;14.13;12.63;;;;;;;-4.90;100.00;96122.75;6179530;23;20015;-67
2021/12/23 04:56:40;;;;;;;16.58;12.93;;;;;;;-4.92;99.74;96124.53;6179176;23;20005;-67
2021/12/23 04:59:05;;;;;;;17.45;13.38;;;;;;;-5.01;99.47;96120.44;6179191;23;20452;-67
2021/12/23 05:01:32;;;;;;;15.80;13.73;;;;;;;-5.06;99.81;96112.00;6179204;23;20054;-67
2021/12/23 05:03:58;;;;;;;16.48;13.80;;;;;;;-5.09;100.00;96106.94;6177954;23;20020;-66
2021/12/23 05:06:24;;;;;;;25.17;18.08;;;;;;;-5.09;99.49;96109.53;6178975;23;20036;-67
2021/12/23 05:08:49;;;;;;;26.92;17.77;;;;;;;-5.10;100.00;96106.09;6179325;23;20433;-67
2021/12/23 05:11:16;;;;;;;22.90;17.58;;;;;;;-5.11;99.47;96109.53;6179112;23;20005;-67
2021/12/23 05:13:42;;;;;;;24.20;17.52;;;;;;;-5.16;99.10;96110.56;6178845;23;20436;-67
2021/12/23 05:16:07;;;;;;;22.00;17.60;;;;;;;-5.20;99.13;96108.03;6179202;23;20001;-67
2021/12/23 05:18:32;;;;;;;22.17;16.33;;;;;;;-5.21;99.75;96106.34;6179079;23;20143;-68
2021/12/23 05:20:58;;;;;;;18.45;14.60;;;;;;;-5.24;99.64;96106.41;6178747;23;20425;-67
2021/12/23 05:23:23;;;;;;;18.23;14.45;;;;;;;-5.23;99.88;96104.72;6179131;23;20001;-67
2021/12/23 05:25:49;;;;;;;13.85;12.38;;;;;;;-5.21;100.00;96090.94;6179192;23;20001;-67
2021/12/23 05:28:14;;;;;;;18.48;13.93;;;;;;;-5.14;99.73;96103.66;6179061;22;20503;-67
2021/12/23 05:30:40;;;;;;;17.38;14.27;;;;;;;-5.09;98.63;96106.94;6178986;23;20009;-67
2021/12/23 05:33:06;;;;;;;16.88;12.75;;;;;;;-5.06;98.79;96119.72;6179091;23;20001;-67
2021/12/23 05:35:31;;;;;;;15.63;12.60;;;;;;;-5.04;98.43;96115.38;6179087;23;20008;-67
2021/12/23 05:37:57;;;;;;;18.40;13.38;;;;;;;-5.02;98.44;96129.03;6178959;23;20005;-67
2021/12/23 05:40:24;;;;;;;14.15;10.77;;;;;;;-5.03;98.72;96135.03;6179012;23;20016;-68
2021/12/23 05:42:51;;;;;;;13.77;9.88;;;;;;;-5.04;98.62;96141.06;6179318;23;20001;-67
2021/12/23 05:45:17;;;;;;;15.07;11.27;;;;;;;-5.01;98.48;96143.56;6178805;23;20005;-67
2021/12/23 05:47:43;;;;;;;10.95;9.80;;;;;;;-4.96;97.96;96152.03;6178989;23;20005;-67
2021/12/23 05:50:10;;;;;;;13.93;11.93;;;;;;;-4.84;97.72;96143.19;6178438;23;20043;-68
2021/12/23 05:52:36;;;;;;;18.73;14.90;;;;;;;-4.83;97.46;96150.00;6178937;23;20520;-68
2021/12/23 05:55:04;;;;;;;15.98;14.27;;;;;;;-4.90;97.48;96151.88;6179363;23;20008;-67
2021/12/23 05:57:30;;;;;;;21.30;16.67;;;;;;;-4.90;98.71;96157.00;6178718;23;20004;-68
2021/12/23 05:59:55;;;;;;;18.00;14.55;;;;;;;-4.87;99.69;96163.78;6178872;23;20075;-67
2021/12/23 06:02:21;;;;;;;19.92;15.30;;;;;;;-4.83;99.65;96160.28;6178830;23;20035;-67
2021/12/23 06:04:46;;;;;;;17.08;13.95;;;;;;;-4.84;100.00;96160.31;6178767;23;20322;-67
2021/12/23 06:07:12;;;;;;;20.08;15.18;;;;;;;-4.84;100.00;96157.72;6178602;23;20009;-67
2021/12/23 06:09:37;;;;;;;17.42;14.85;;;;;;;-4.81;100.00;96158.50;6152200;23;20050;-67
2021/12/23 06:12:03;;;;;;;23.50;17.25;;;;;;;-4.80;100.00;96149.94;6179098;23;20016;-67
2021/12/23 06:14:28;;;;;;;25.83;18.65;;;;;;;-4.78;100.00;96158.44;6178745;23;20341;-67
2021/12/23 06:16:53;;;;;;;20.15;17.92;;;;;;;-4.84;100.00;96158.59;6178649;23;20001;-68
2021/12/23 06:19:19;;;;;;;18.75;16.67;;;;;;;-4.90;100.00;96159.56;6178610;23;20015;-67
2021/12/23 06:21:44;;;;;;;20.15;16.80;;;;;;;-4.89;100.00;96158.69;6178304;23;20020;-68
2021/12/23 06:24:10;;;;;;;24.63;18.80;;;;;;;-4.93;100.00;96156.22;6178742;23;20023;-67
2021/12/23 06:26:35;;;;;;;69.63;44.45;;;;;;;-4.94;100.00;96157.09;6178860;23;20019;-67
2021/12/23 06:29:00;;;;;;;58.42;39.20;;;;;;;-4.99;100.00;96148.66;6178186;23;20006;-67
2021/12/23 06:31:26;;;;;;;67.10;43.20;;;;;;;-4.97;100.00;96150.34;6177715;23;20449;-67
2021/12/23 06:33:51;;;;;;;58.22;37.05;;;;;;;-4.89;99.02;96145.00;6152348;23;20433;-67
2021/12/23 06:36:17;;;;;;;41.50;29.95;;;;;;;-4.94;100.00;96134.84;6178735;23;20008;-67
2021/12/23 06:38:43;;;;;;;50.88;31.35;;;;;;;-5.01;99.62;96133.28;6178955;23;20017;-67
2021/12/23 06:41:09;;;;;;;40.03;27.88;;;;;;;-5.11;98.87;96132.66;6152630;23;20382;-68
2021/12/23 06:43:35;;;;;;;45.72;33.55;;;;;;;-5.14;98.89;96134.47;6179754;23;20001;-67
2021/12/23 06:46:03;;;;;;;49.33;32.08;;;;;;;-5.22;99.70;96130.34;6179817;23;20051;-68
2021/12/23 06:48:30;;;;;;;41.72;30.33;;;;;;;-5.26;99.02;96131.28;6179716;23;20013;-67
2021/12/23 06:50:57;;;;;;;40.83;30.05;;;;;;;-5.36;98.70;96130.66;6179215;23;20062;-68
2021/12/23 06:53:23;;;;;;;41.58;30.17;;;;;;;-5.38;99.27;96126.44;6179933;23;20335;-68
2021/12/23 06:55:51;;;;;;;37.90;23.67;;;;;;;-5.39;98.90;96129.91;6179776;23;20001;-67
2021/12/23 06:58:17;;;;;;;38.38;26.35;;;;;;;-5.19;98.40;96138.00;6179690;23;20078;-67
2021/12/23 07:00:43;;;;;;;35.90;24.08;;;;;;;-5.34;98.45;96148.59;6179791;22;20421;-68
2021/12/23 07:03:08;;;;;;;37.60;24.25;;;;;;;-5.39;98.50;96153.00;6179713;23;20001;-68
2021/12/23 07:05:34;;;;;;;32.80;24.38;;;;;;;-5.47;98.02;96153.97;6178634;23;20045;-72
2021/12/23 07:08:11;;;;;;;30.60;21.88;;;;;;;-5.52;98.54;96158.38;6179297;23;20005;-68
2021/12/23 07:10:38;;;;;;;29.65;20.85;;;;;;;-5.56;98.77;96159.31;6178679;23;20041;-68
2021/12/23 07:13:04;;;;;;;28.25;21.38;;;;;;;-5.57;98.80;96149.94;6152650;22;20005;-68
2021/12/23 07:15:32;;;;;;;39.08;29.35;;;;;;;-5.39;97.52;96155.56;6178505;23;20075;-68
2021/12/23 07:18:00;;;;;;;28.63;19.98;;;;;;;-5.42;97.32;96159.03;6178970;23;20013;-69
2021/12/23 07:20:28;;;;;;;19.75;16.27;;;;;;;-5.30;98.15;96159.66;6177977;23;20009;-69
2021/12/23 07:22:54;;;;;;;20.25;16.90;;;;;;;-5.28;98.65;96161.28;6179192;23;20013;-70
2021/12/23 07:25:20;;;;;;;20.10;17.95;;;;;;;-5.26;98.55;96159.53;6179686;23;20345;-67
2021/12/23 07:27:47;;;;;;;23.33;19.52;;;;;;;-5.27;99.98;96167.28;6177901;23;20009;-64
2021/12/23 07:30:18;;;;;;;24.83;20.85;;;;;;;-5.33;99.81;96158.81;6178811;23;20005;-64
2021/12/23 07:32:44;;;;;;;25.50;22.17;;;;;;;-5.36;100.00;96166.59;6178912;23;20028;-65
2021/12/23 07:35:11;;;;;;;22.10;19.60;;;;;;;-5.34;100.00;96167.41;6178492;23;20073;-64
2021/12/23 07:37:36;;;;;;;22.10;19.52;;;;;;;-5.27;100.00;96170.69;6178935;23;20379;-68
2021/12/23 07:40:03;;;;;;;20.67;17.92;;;;;;;-5.23;100.00;96174.84;6179175;23;20065;-68
2021/12/23 07:42:31;;;;;;;25.60;18.55;;;;;;;-5.07;99.98;96171.97;6178503;23;20028;-66
2021/12/23 07:44:57;;;;;;;24.10;19.83;;;;;;;-5.15;100.00;96179.00;6179069;23;20009;-69
2021/12/23 07:47:23;;;;;;;30.23;23.30;;;;;;;-5.21;100.00;96180.81;6178628;23;20080;-57
2021/12/23 07:49:49;;;;;;;27.25;23.30;;;;;;;-5.28;100.00;96184.38;6179704;23;20001;-56
2021/12/23 07:52:14;;;;;;;31.92;25.92;;;;;;;-5.26;100.00;96182.63;6178808;23;20001;-58
2021/12/23 07:54:40;;;;;;;41.85;31.75;;;;;;;-5.32;100.00;96177.63;6179052;23;20012;-56
2021/12/23 07:57:05;;;;;;;43.97;35.55;;;;;;;-5.31;100.00;96176.75;6178211;23;20013;-55
2021/12/23 07:59:31;;;;;;;55.30;41.38;;;;;;;-5.11;100.00;96181.44;6178871;23;20005;-58
2021/12/23 08:01:57;;;;;;;51.25;41.25;;;;;;;-5.12;99.87;96181.50;6178677;23;20348;-56
2021/12/23 08:04:23;;;;;;;50.40;39.20;;;;;;;-5.09;98.87;96178.84;6179018;23;20024;-57
2021/12/23 08:06:55;;;;;;;47.22;39.65;;;;;;;-5.21;99.75;96178.22;6179247;23;20521;-54
2021/12/23 08:09:20;;;;;;;35.13;29.17;;;;;;;-4.94;98.57;96175.09;6178499;23;20073;-55
2021/12/23 08:11:45;;;;;;;36.13;32.22;;;;;;;-4.86;98.72;96185.19;6179475;23;20092;-56
2021/12/23 08:14:11;;;;;;;55.40;42.10;;;;;;;-4.91;98.26;96193.84;6179271;23;20358;-55
2021/12/23 08:16:36;;;;;;;56.30;42.90;;;;;;;-4.97;98.87;96194.00;6176566;23;20080;-52
2021/12/23 08:19:02;;;;;;;52.97;40.42;;;;;;;-5.03;98.92;96194.13;6178554;23;20343;-56
2021/12/23 08:21:28;;;;;;;53.10;40.75;;;;;;;-5.07;98.46;96197.63;6178397;23;20016;-55
2021/12/23 08:23:54;;;;;;;46.15;37.38;;;;;;;-5.10;98.97;96190.84;6179224;23;20069;-53
2021/12/23 08:26:22;;;;;;;36.22;32.30;;;;;;;-5.10;98.78;96188.25;6177940;23;20080;-51
2021/12/23 08:28:48;;;;;;;40.63;33.67;;;;;;;-5.10;98.41;96188.25;6176539;23;20005;-52
2021/12/23 08:31:13;;;;;;;39.83;32.08;;;;;;;-5.07;98.74;96192.50;6176124;23;20009;-53
2021/12/23 08:33:39;;;;;;;40.95;33.58;;;;;;;-5.05;98.52;96191.59;6176901;23;20044;-49
2021/12/23 08:36:04;;;;;;;39.17;32.42;;;;;;;-5.09;97.98;96196.81;6176912;23;20067;-53
2021/12/23 08:38:30;;;;;;;40.22;32.28;;;;;;;-5.12;98.25;96200.28;6177310;23;20001;-52
2021/12/23 08:40:56;;;;;;;43.13;33.83;;;;;;;-5.17;97.99;96197.00;6177643;23;20015;-52
2021/12/23 08:43:22;;;;;;;48.63;35.13;;;;;;;-5.18;98.16;96211.56;6178283;23;20031;-50
2021/12/23 08:45:48;;;;;;;55.45;38.17;;;;;;;-5.15;98.49;96205.50;6178743;23;20405;-51
2021/12/23 08:48:13;;;;;;;52.42;36.17;;;;;;;-5.16;98.12;96203.00;6178574;22;20076;-51
2021/12/23 08:50:39;;;;;;;44.60;32.10;;;;;;;-5.14;98.19;96208.94;6178992;23;20020;-51
2021/12/23 08:53:04;;;;;;;36.03;30.20;;;;;;;-5.12;98.69;96202.88;6178692;23;20009;-52
2021/12/23 08:55:31;;;;;;;41.50;33.70;;;;;;;-5.09;98.46;96199.41;6178044;23;20127;-53
2021/12/23 08:57:57;;;;;;;36.63;31.23;;;;;;;-5.03;98.74;96204.38;6178929;23;20001;-51
2021/12/23 09:00:23;;;;;;;54.28;33.97;;;;;;;-5.03;98.77;96209.53;6178523;23;20029;-51
2021/12/23 09:02:49;;;;;;;36.97;30.65;;;;;;;-5.03;98.08;96214.66;6178497;23;20001;-54
2021/12/23 09:05:16;;;;;;;36.75;31.50;;;;;;;-5.04;98.11;96218.09;6177122;23;20069;-56
2021/12/23 09:07:42;;;;;;;34.92;29.00;;;;;;;-5.03;98.26;96215.53;6178468;23;20005;-56
2021/12/23 09:10:09;;;;;;;33.95;29.35;;;;;;;-5.01;99.27;96207.75;6178226;23;20345;-56
2021/12/23 09:12:34;;;;;;;33.22;27.88;;;;;;;-4.95;99.60;96201.66;6178427;23;20009;-55
2021/12/23 09:14:59;;;;;;;30.92;27.10;;;;;;;-4.93;99.85;96202.47;6151875;23;20089;-56
2021/12/23 09:17:25;;;;;;;37.15;28.73;;;;;;;-4.91;99.66;96204.13;6178679;23;20001;-56
2021/12/23 09:19:50;;;;;;;41.92;31.70;;;;;;;-4.85;99.18;96199.72;6179084;23;20442;-53
2021/12/23 09:22:16;;;;;;;60.72;40.13;;;;;;;-4.83;99.26;96195.38;6178741;23;20032;-53
2021/12/23 09:24:45;;;;;;;50.22;36.85;;;;;;;-4.84;99.67;96194.56;6151571;23;20020;-52
2021/12/23 09:27:28;;;;;;;43.85;32.75;;;;;;;-4.90;99.30;96194.69;6178171;23;20001;-55
2021/12/23 09:35:04;;;;;;;61.75;40.35;;;;;;;-4.77;99.71;96184.97;6178618;23;20019;-54
2021/12/23 09:37:29;;;;;;;62.10;39.92;;;;;;;-4.70;99.87;96191.66;6178219;23;20563;-53
2021/12/23 09:39:57;;;;;;;57.38;36.58;;;;;;;-4.43;100.00;96194.44;6179025;22;20250;-55
2021/12/23 09:42:26;;;;;;;48.38;37.67;;;;;;;-3.82;100.00;96195.44;6178309;23;20005;-55
2021/12/23 09:44:57;;;;;;;43.40;32.50;;;;;;;-3.09;98.86;96196.81;6178664;23;20001;-55
2021/12/23 09:47:27;;;;;;;42.42;30.38;;;;;;;-2.52;95.28;96191.63;6178669;23;20032;-55
2021/12/23 09:49:54;;;;;;;35.13;26.65;;;;;;;-2.04;92.67;96191.75;6178661;23;20076;-57
2021/12/23 09:52:21;;;;;;;39.33;29.80;;;;;;;-1.64;92.59;96184.38;6176845;23;20005;-54
2021/12/23 09:54:46;;;;;;;60.60;34.92;;;;;;;-1.30;90.52;96186.56;6178951;23;20062;-56
2021/12/23 09:57:12;;;;;;;60.72;33.97;;;;;;;-0.91;89.47;96179.09;6178265;23;20005;-56
2021/12/23 09:59:38;;;;;;;45.67;28.38;;;;;;;-0.57;90.81;96175.19;6178412;23;20072;-55
2021/12/23 10:02:03;;;;;;;37.80;28.00;;;;;;;-0.48;89.77;96173.97;6152029;23;20105;-56
2021/12/23 10:04:29;;;;;;;37.83;27.35;;;;;;;-0.40;85.80;96169.31;6178525;23;20013;-56
2021/12/23 10:06:57;;;;;;;33.45;22.92;;;;;;;-0.12;85.39;96169.91;6178557;23;20321;-55
2021/12/23 10:32:27;;;;;;;36.30;24.17;;;;;;;2.39;73.44;96145.22;6178010;23;20146;-58
2021/12/23 10:39:46;;;;;;;19.40;14.75;;;;;;;2.94;67.94;96151.00;6178627;23;20009;-57
2021/12/23 10:42:18;;;;;;;18.80;14.93;;;;;;;3.08;69.46;96152.00;6178177;22;20001;-58
2021/12/23 10:45:00;;;;;;;17.38;13.73;;;;;;;3.40;71.11;96152.81;6178030;23;20414;-57
2021/12/23 10:47:36;;;;;;;31.60;17.85;;;;;;;3.55;69.98;96145.06;6178228;23;20470;-58
2021/12/23 10:50:16;;;;;;;25.73;16.42;;;;;;;3.38;66.91;96139.03;6178198;23;20001;-58
2021/12/23 10:52:52;;;;;;;15.38;9.90;;;;;;;3.43;68.38;96139.63;6178253;23;20050;-57
2021/12/23 11:00:35;;;;;;;7.55;5.78;;;;;;;4.49;68.47;96130.88;6177993;23;19927;-59
2021/12/23 11:05:50;;;;;;;9.73;7.45;;;;;;;4.47;64.55;96119.72;6303938;22;20371;-58
2021/12/23 11:08:33;;;;;;;14.82;8.77;;;;;;;4.49;63.21;96125.66;6304280;22;20010;-57
2021/12/23 11:43:52;;;;;;;7.20;4.03;;;;;;;7.66;47.40;96062.66;6306577;22;20003;-58
2021/12/23 11:46:22;;;;;;;8.80;3.92;;;;;;;7.67;48.69;96053.84;6305884;22;20007;-58
2021/12/23 11:48:52;;;;;;;5.03;3.00;;;;;;;7.59;48.62;96057.03;6306098;22;20505;-58
2021/12/23 11:51:29;;;;;;;3.70;3.40;;;;;;;7.15;51.02;96045.44;6305890;22;20010;-57
2021/12/23 11:53:55;;;;;;;3.58;2.92;;;;;;;6.88;49.12;96049.94;6305851;22;20492;-58
2021/12/23 11:56:21;;;;;;;4.30;3.95;;;;;;;6.65;49.23;96043.75;6306047;22;19999;-58
2021/12/23 11:58:49;;;;;;;5.63;3.00;;;;;;;6.83;50.88;96036.34;6305887;22;20046;-58
2021/12/23 12:01:18;;;;;;;5.20;2.90;;;;;;;6.74;50.53;96040.44;6305917;22;20006;-58
2021/12/23 12:03:57;;;;;;;3.63;2.88;;;;;;;6.71;48.62;96030.22;6278640;22;20088;-57
2021/12/23 12:06:48;;;;;;;3.97;2.95;;;;;;;6.65;49.35;96021.97;6178876;23;20343;-58
2021/12/23 12:09:31;;;;;;;2.92;2.72;;;;;;;6.75;47.60;96015.13;6178990;23;19997;-57
2021/12/23 12:11:59;;;;;;;7.00;2.80;;;;;;;6.69;48.40;96007.69;6179817;23;20031;-58
2021/12/23 12:14:38;;;;;;;4.15;2.50;;;;;;;6.46;48.88;96010.19;6179131;23;20009;-58
2021/12/23 12:17:25;;;;;;;3.45;2.83;;;;;;;6.47;51.19;96006.63;6179776;23;20012;-57
2021/12/23 12:19:51;;;;;;;2.70;2.50;;;;;;;6.63;48.85;95993.31;6179396;23;20444;-58
2021/12/23 12:22:47;;;;;;;3.28;2.97;;;;;;;6.67;49.95;95996.50;6178931;23;20009;-57
2021/12/23 12:25:25;;;;;;;10.18;4.28;;;;;;;6.89;50.28;95990.56;6178989;23;20051;-58
2021/12/23 12:27:56;;;;;;;9.40;4.38;;;;;;;6.98;51.44;95987.28;6178760;23;20005;-58
2021/12/23 12:30:39;;;;;;;4.45;4.05;;;;;;;6.87;49.24;95982.81;6178610;23;20337;-59
2021/12/23 12:33:12;;;;;;;5.70;4.40;;;;;;;6.87;48.73;95982.81;6178834;23;20001;-58
2021/12/23 12:35:39;;;;;;;6.40;3.78;;;;;;;6.71;50.81;95987.50;6178917;23;19997;-58
2021/12/23 12:38:28;;;;;;;5.75;4.57;;;;;;;6.67;53.56;95980.81;6178637;23;20011;-58
2021/12/23 12:40:58;;;;;;;5.15;4.65;;;;;;;7.11;51.06;95978.53;6178718;23;20009;-58